createdAt,value
2018-09-24T00:00:39.952Z,0
2018-09-24T00:01:49.608Z,0
2018-09-24T00:02:59.767Z,0
2018-09-24T00:04:09.691Z,0
2018-09-24T00:05:19.031Z,0
2018-09-24T00:06:28.966Z,0
2018-09-24T00:07:38.578Z,0
2018-09-24T00:08:48.464Z,0
2018-09-24T00:09:58.360Z,0
2018-09-24T00:11:08.269Z,0
2018-09-24T00:12:18.165Z,0
2018-09-24T00:13:28.361Z,0
2018-09-24T00:14:37.974Z,0
2018-09-24T00:15:47.591Z,0
2018-09-24T00:16:57.205Z,0
2018-09-24T00:18:07.085Z,0
2018-09-24T00:19:17.009Z,0
2018-09-24T00:20:26.895Z,0
2018-09-24T00:21:36.817Z,0
2018-09-24T00:22:46.974Z,0
2018-09-24T00:23:57.182Z,0
2018-09-24T00:25:06.843Z,0
2018-09-24T00:26:16.459Z,0
2018-09-24T00:27:26.345Z,0
2018-09-24T00:28:36.279Z,0
2018-09-24T00:29:46.471Z,0
2018-09-24T00:30:56.359Z,0
2018-09-24T00:32:06.551Z,0
2018-09-24T00:33:16.441Z,0
2018-09-24T00:34:26.336Z,0
2018-09-24T00:35:36.226Z,0
2018-09-24T00:36:45.842Z,0
2018-09-24T00:37:55.737Z,0
2018-09-24T00:39:05.895Z,0
2018-09-24T00:40:15.820Z,0
2018-09-24T00:41:25.433Z,0
2018-09-24T00:42:35.321Z,0
2018-09-24T00:43:45.601Z,0
2018-09-24T00:44:55.482Z,0
2018-09-24T00:46:05.848Z,0
2018-09-24T00:47:15.733Z,0
2018-09-24T00:48:25.627Z,0
2018-09-24T00:49:35.512Z,0
2018-09-24T00:50:45.685Z,0
2018-09-24T00:51:55.601Z,0
2018-09-24T00:53:05.536Z,0
2018-09-24T00:54:14.875Z,0
2018-09-24T00:55:24.773Z,0
2018-09-24T00:56:34.935Z,0
2018-09-24T00:57:44.548Z,0
2018-09-24T00:58:54.711Z,0
2018-09-24T01:00:04.878Z,0
2018-09-24T01:01:14.768Z,0
2018-09-24T01:02:23.838Z,0
2018-09-24T01:03:34.003Z,0
2018-09-24T01:04:44.165Z,0
2018-09-24T01:05:53.518Z,0
2018-09-24T01:07:03.137Z,0
2018-09-24T01:08:12.750Z,0
2018-09-24T01:09:22.366Z,0
2018-09-24T01:10:32.260Z,0
2018-09-24T01:11:42.417Z,0
2018-09-24T01:12:52.823Z,0
2018-09-24T01:14:02.701Z,0
2018-09-24T01:15:12.320Z,0
2018-09-24T01:16:22.486Z,0
2018-09-24T01:17:32.390Z,0
2018-09-24T01:18:42.561Z,0
2018-09-24T01:19:52.455Z,0
2018-09-24T01:21:02.621Z,0
2018-09-24T01:22:11.682Z,0
2018-09-24T01:23:21.623Z,0
2018-09-24T01:24:31.786Z,0
2018-09-24T01:25:41.677Z,0
2018-09-24T01:26:51.561Z,0
2018-09-24T01:28:01.722Z,0
2018-09-24T01:29:11.388Z,0
2018-09-24T01:30:21.287Z,0
2018-09-24T01:31:31.479Z,0
2018-09-24T01:32:41.646Z,0
2018-09-24T01:33:51.537Z,0
2018-09-24T01:35:01.710Z,0
2018-09-24T01:36:11.627Z,0
2018-09-24T01:37:21.243Z,0
2018-09-24T01:38:31.410Z,0
2018-09-24T01:39:41.019Z,0
2018-09-24T01:40:50.648Z,0
2018-09-24T01:42:00.341Z,0
2018-09-24T01:43:10.223Z,0
2018-09-24T01:44:20.110Z,0
2018-09-24T01:45:30.003Z,0
2018-09-24T01:46:39.620Z,0
2018-09-24T01:47:49.234Z,0
2018-09-24T01:48:59.398Z,0
2018-09-24T01:50:09.028Z,0
2018-09-24T01:51:19.201Z,0
2018-09-24T01:52:28.813Z,0
2018-09-24T01:53:38.667Z,0
2018-09-24T01:54:48.797Z,0
2018-09-24T01:55:58.689Z,0
2018-09-24T01:57:08.609Z,0
2018-09-24T01:58:18.774Z,0
2018-09-24T01:59:28.656Z,0
2018-09-24T02:00:38.288Z,0
2018-09-24T02:01:48.443Z,0
2018-09-24T02:02:58.636Z,0
2018-09-24T02:04:08.588Z,0
2018-09-24T02:05:17.923Z,0
2018-09-24T02:06:27.810Z,0
2018-09-24T02:07:37.691Z,0
2018-09-24T02:08:47.575Z,0
2018-09-24T02:09:57.186Z,0
2018-09-24T02:11:06.803Z,0
2018-09-24T02:12:16.961Z,0
2018-09-24T02:13:26.296Z,0
2018-09-24T02:14:36.180Z,0
2018-09-24T02:15:46.402Z,0
2018-09-24T02:16:56.571Z,0
2018-09-24T02:18:06.466Z,0
2018-09-24T02:19:16.359Z,0
2018-09-24T02:20:26.240Z,0
2018-09-24T02:21:36.325Z,0
2018-09-24T02:22:45.941Z,0
2018-09-24T02:23:55.844Z,0
2018-09-24T02:25:05.987Z,0
2018-09-24T02:26:16.170Z,0
2018-09-24T02:27:26.497Z,0
2018-09-24T02:28:36.667Z,0
2018-09-24T02:29:46.559Z,0
2018-09-24T02:30:56.479Z,0
2018-09-24T02:32:06.377Z,0
2018-09-24T02:33:16.267Z,0
2018-09-24T02:34:25.611Z,0
2018-09-24T02:35:35.457Z,0
2018-09-24T02:36:45.823Z,0
2018-09-24T02:37:55.990Z,0
2018-09-24T02:39:06.151Z,0
2018-09-24T02:40:16.034Z,0
2018-09-24T02:41:25.918Z,0
2018-09-24T02:42:35.808Z,0
2018-09-24T02:43:45.191Z,0
2018-09-24T02:44:55.087Z,0
2018-09-24T02:46:04.988Z,0
2018-09-24T02:47:14.878Z,0
2018-09-24T02:48:25.029Z,0
2018-09-24T02:49:34.099Z,0
2018-09-24T02:50:44.021Z,0
2018-09-24T02:51:54.195Z,0
2018-09-24T02:53:04.114Z,0
2018-09-24T02:54:13.457Z,0
2018-09-24T02:55:23.617Z,0
2018-09-24T02:56:33.291Z,0
2018-09-24T02:57:42.637Z,0
2018-09-24T02:58:52.808Z,0
2018-09-24T03:00:02.984Z,0
2018-09-24T03:01:13.361Z,0
2018-09-24T03:02:23.310Z,0
2018-09-24T03:03:33.220Z,0
2018-09-24T03:04:42.873Z,0
2018-09-24T03:05:52.765Z,0
2018-09-24T03:07:02.932Z,0
2018-09-24T03:08:12.282Z,0
2018-09-24T03:09:22.213Z,0
2018-09-24T03:10:32.099Z,0
2018-09-24T03:11:41.730Z,0
2018-09-24T03:12:52.111Z,0
2018-09-24T03:14:02.271Z,0
2018-09-24T03:15:12.449Z,0
2018-09-24T03:16:22.073Z,0
2018-09-24T03:17:31.695Z,0
2018-09-24T03:18:41.591Z,0
2018-09-24T03:19:51.516Z,0
2018-09-24T03:21:01.132Z,0
2018-09-24T03:22:10.749Z,0
2018-09-24T03:23:20.917Z,0
2018-09-24T03:24:30.799Z,0
2018-09-24T03:25:40.452Z,0
2018-09-24T03:26:50.068Z,0
2018-09-24T03:27:59.958Z,0
2018-09-24T03:29:10.157Z,0
2018-09-24T03:30:19.785Z,0
2018-09-24T03:31:29.714Z,0
2018-09-24T03:32:39.616Z,0
2018-09-24T03:33:49.786Z,0
2018-09-24T03:34:59.124Z,0
2018-09-24T03:36:08.734Z,0
2018-09-24T03:37:18.351Z,0
2018-09-24T03:38:28.260Z,0
2018-09-24T03:39:38.460Z,0
2018-09-24T03:40:48.075Z,0
2018-09-24T03:41:58.163Z,0
2018-09-24T03:43:08.102Z,0
2018-09-24T03:44:17.716Z,0
2018-09-24T03:45:27.886Z,0
2018-09-24T03:46:37.773Z,0
2018-09-24T03:47:47.668Z,0
2018-09-24T03:48:57.022Z,0
2018-09-24T03:50:06.691Z,0
2018-09-24T03:51:16.299Z,0
2018-09-24T03:52:26.184Z,0
2018-09-24T03:53:36.124Z,0
2018-09-24T03:54:46.331Z,0
2018-09-24T03:55:56.225Z,0
2018-09-24T03:57:06.389Z,0
2018-09-24T03:58:16.317Z,0
2018-09-24T03:59:25.929Z,0
2018-09-24T04:00:35.864Z,0
2018-09-24T04:01:45.482Z,0
2018-09-24T04:02:55.403Z,0
2018-09-24T04:04:05.272Z,0
2018-09-24T04:05:14.621Z,0
2018-09-24T04:06:24.555Z,0
2018-09-24T04:07:34.166Z,0
2018-09-24T04:08:44.337Z,0
2018-09-24T04:09:54.824Z,0
2018-09-24T04:11:05.574Z,0
2018-09-24T04:12:15.465Z,0
2018-09-24T04:13:25.370Z,0
2018-09-24T04:14:35.267Z,0
2018-09-24T04:15:44.885Z,0
2018-09-24T04:16:54.789Z,0
2018-09-24T04:18:04.962Z,0
2018-09-24T04:19:14.854Z,0
2018-09-24T04:20:25.024Z,0
2018-09-24T04:21:34.629Z,0
2018-09-24T04:22:44.249Z,0
2018-09-24T04:23:54.137Z,0
2018-09-24T04:25:03.749Z,0
2018-09-24T04:26:13.951Z,0
2018-09-24T04:27:23.508Z,0
2018-09-24T04:28:33.422Z,0
2018-09-24T04:29:43.308Z,0
2018-09-24T04:30:53.468Z,0
2018-09-24T04:32:03.077Z,0
2018-09-24T04:33:13.009Z,0
2018-09-24T04:34:22.894Z,0
2018-09-24T04:35:33.064Z,0
2018-09-24T04:36:42.972Z,0
2018-09-24T04:37:53.106Z,0
2018-09-24T04:39:03.014Z,0
2018-09-24T04:40:12.909Z,0
2018-09-24T04:41:23.353Z,0
2018-09-24T04:42:33.006Z,0
2018-09-24T04:43:42.933Z,0
2018-09-24T04:44:52.829Z,0
2018-09-24T04:46:03.002Z,0
2018-09-24T04:47:12.938Z,0
2018-09-24T04:48:23.063Z,0
2018-09-24T04:49:32.679Z,0
2018-09-24T04:50:42.633Z,0
2018-09-24T04:51:52.532Z,0
2018-09-24T04:53:02.430Z,0
2018-09-24T04:54:11.779Z,0
2018-09-24T04:55:21.394Z,0
2018-09-24T04:56:30.739Z,0
2018-09-24T04:57:40.362Z,0
2018-09-24T04:58:51.016Z,0
2018-09-24T05:00:00.640Z,0
2018-09-24T05:01:10.545Z,0
2018-09-24T05:02:20.976Z,0
2018-09-24T05:03:31.149Z,0
2018-09-24T05:04:41.086Z,0
2018-09-24T05:05:50.977Z,0
2018-09-24T05:07:00.591Z,0
2018-09-24T05:08:10.784Z,0
2018-09-24T05:09:20.396Z,0
2018-09-24T05:10:29.827Z,0
2018-09-24T05:11:39.442Z,0
2018-09-24T05:12:49.061Z,0
2018-09-24T05:13:58.952Z,0
2018-09-24T05:15:09.333Z,0
2018-09-24T05:16:19.646Z,5
2018-09-24T05:17:28.901Z,10
2018-09-24T05:18:38.518Z,10
2018-09-24T05:19:48.401Z,10
2018-09-24T05:20:58.012Z,15
2018-09-24T05:22:07.901Z,15
2018-09-24T05:23:17.514Z,15
2018-09-24T05:24:27.692Z,15
2018-09-24T05:25:37.626Z,15
2018-09-24T05:26:46.966Z,20
2018-09-24T05:27:56.310Z,20
2018-09-24T05:29:05.920Z,20
2018-09-24T05:30:15.811Z,20
2018-09-24T05:31:25.999Z,20
2018-09-24T05:32:36.528Z,25
2018-09-24T05:33:46.409Z,25
2018-09-24T05:34:56.319Z,30
2018-09-24T05:36:06.237Z,30
2018-09-24T05:37:15.338Z,35
2018-09-24T05:38:25.002Z,35
2018-09-24T05:39:34.617Z,35
2018-09-24T05:40:43.955Z,40
2018-09-24T05:41:53.331Z,40
2018-09-24T05:43:03.495Z,40
2018-09-24T05:44:13.662Z,45
2018-09-24T05:45:23.560Z,45
2018-09-24T05:46:33.712Z,45
2018-09-24T05:47:43.671Z,45
2018-09-24T05:48:53.595Z,50
2018-09-24T05:50:03.778Z,50
2018-09-24T05:51:13.753Z,50
2018-09-24T05:52:23.740Z,55
2018-09-24T05:53:33.642Z,55
2018-09-24T05:54:43.801Z,60
2018-09-24T05:55:53.960Z,60
2018-09-24T05:57:03.300Z,60
2018-09-24T05:58:12.359Z,65
2018-09-24T05:59:21.973Z,65
2018-09-24T06:00:31.306Z,70
2018-09-24T06:01:41.239Z,70
2018-09-24T06:02:50.878Z,75
2018-09-24T06:04:00.483Z,75
2018-09-24T06:05:09.829Z,75
2018-09-24T06:06:19.464Z,80
2018-09-24T06:07:29.629Z,85
2018-09-24T06:08:39.234Z,90
2018-09-24T06:09:49.120Z,95
2018-09-24T06:10:59.044Z,95
2018-09-24T06:12:08.658Z,95
2018-09-24T06:13:18.541Z,100
2018-09-24T06:14:28.737Z,95
2018-09-24T06:15:38.353Z,95
2018-09-24T06:16:48.515Z,100
2018-09-24T06:17:57.851Z,100
2018-09-24T06:19:08.566Z,105
2018-09-24T06:20:18.106Z,105
2018-09-24T06:21:27.995Z,100
2018-09-24T06:22:37.335Z,100
2018-09-24T06:23:47.232Z,100
2018-09-24T06:24:56.841Z,100
2018-09-24T06:26:06.179Z,100
2018-09-24T06:27:16.345Z,105
2018-09-24T06:28:26.833Z,115
2018-09-24T06:29:36.179Z,110
2018-09-24T06:30:46.335Z,110
2018-09-24T06:31:55.680Z,110
2018-09-24T06:33:05.289Z,110
2018-09-24T06:34:15.282Z,115
2018-09-24T06:35:25.737Z,115
2018-09-24T06:36:35.619Z,110
2018-09-24T06:37:45.243Z,115
2018-09-24T06:38:55.134Z,120
2018-09-24T06:40:04.840Z,120
2018-09-24T06:41:15.404Z,110
2018-09-24T06:42:25.387Z,120
2018-09-24T06:43:35.004Z,115
2018-09-24T06:44:44.657Z,120
2018-09-24T06:45:54.926Z,115
2018-09-24T06:47:04.849Z,120
2018-09-24T06:48:14.177Z,110
2018-09-24T06:49:24.337Z,110
2018-09-24T06:50:34.500Z,115
2018-09-24T06:51:44.399Z,120
2018-09-24T06:52:54.254Z,130
2018-09-24T06:54:04.134Z,135
2018-09-24T06:55:13.508Z,130
2018-09-24T06:56:23.394Z,130
2018-09-24T06:57:32.730Z,130
2018-09-24T06:58:42.614Z,125
2018-09-24T06:59:52.524Z,130
2018-09-24T07:01:02.415Z,140
2018-09-24T07:02:12.341Z,150
2018-09-24T07:03:22.258Z,165
2018-09-24T07:04:32.395Z,180
2018-09-24T07:05:42.312Z,195
2018-09-24T07:06:52.202Z,200
2018-09-24T07:08:02.353Z,200
2018-09-24T07:09:11.691Z,210
2018-09-24T07:10:21.305Z,220
2018-09-24T07:11:31.606Z,220
2018-09-24T07:12:41.225Z,195
2018-09-24T07:13:50.579Z,195
2018-09-24T07:15:00.479Z,185
2018-09-24T07:16:10.641Z,185
2018-09-24T07:17:20.556Z,190
2018-09-24T07:18:29.894Z,205
2018-09-24T07:19:40.050Z,230
2018-09-24T07:20:49.948Z,245
2018-09-24T07:22:00.109Z,240
2018-09-24T07:23:09.718Z,230
2018-09-24T07:24:19.890Z,220
2018-09-24T07:25:29.774Z,220
2018-09-24T07:26:39.672Z,215
2018-09-24T07:27:49.726Z,210
2018-09-24T07:28:59.117Z,220
2018-09-24T07:30:08.738Z,240
2018-09-24T07:31:18.634Z,255
2018-09-24T07:32:27.973Z,255
2018-09-24T07:33:37.605Z,225
2018-09-24T07:34:46.946Z,210
2018-09-24T07:35:56.567Z,215
2018-09-24T07:37:06.477Z,215
2018-09-24T07:38:16.641Z,220
2018-09-24T07:39:26.282Z,225
2018-09-24T07:40:35.895Z,215
2018-09-24T07:41:45.542Z,200
2018-09-24T07:42:54.946Z,190
2018-09-24T07:44:04.843Z,195
2018-09-24T07:45:15.002Z,190
2018-09-24T07:46:25.165Z,190
2018-09-24T07:47:35.083Z,190
2018-09-24T07:48:45.015Z,210
2018-09-24T07:49:54.910Z,210
2018-09-24T07:51:04.587Z,205
2018-09-24T07:52:14.483Z,210
2018-09-24T07:53:24.084Z,225
2018-09-24T07:54:33.970Z,250
2018-09-24T07:55:44.194Z,285
2018-09-24T07:56:54.368Z,275
2018-09-24T07:58:04.588Z,260
2018-09-24T07:59:14.788Z,255
2018-09-24T08:00:25.189Z,260
2018-09-24T08:01:35.078Z,285
2018-09-24T08:02:45.313Z,305
2018-09-24T08:03:55.205Z,300
2018-09-24T08:05:04.816Z,295
2018-09-24T08:06:14.981Z,290
2018-09-24T08:07:25.020Z,245
2018-09-24T08:08:35.192Z,240
2018-09-24T08:09:45.361Z,255
2018-09-24T08:10:55.021Z,270
2018-09-24T08:12:05.430Z,345
2018-09-24T08:13:15.859Z,360
2018-09-24T08:14:25.759Z,270
2018-09-24T08:15:35.650Z,240
2018-09-24T08:16:45.518Z,230
2018-09-24T08:17:55.136Z,245
2018-09-24T08:19:05.024Z,265
2018-09-24T08:20:14.914Z,280
2018-09-24T08:21:24.531Z,300
2018-09-24T08:22:34.447Z,340
2018-09-24T08:23:44.346Z,405
2018-09-24T08:24:54.326Z,440
2018-09-24T08:26:03.953Z,380
2018-09-24T08:27:13.629Z,300
2018-09-24T08:28:22.975Z,225
2018-09-24T08:29:32.858Z,155
2018-09-24T08:30:42.196Z,135
2018-09-24T08:31:52.089Z,160
2018-09-24T08:33:01.974Z,155
2018-09-24T08:34:11.582Z,125
2018-09-24T08:35:21.477Z,105
2018-09-24T08:36:30.957Z,100
2018-09-24T08:37:40.933Z,100
2018-09-24T08:38:50.578Z,95
2018-09-24T08:40:00.204Z,95
2018-09-24T08:41:10.128Z,105
2018-09-24T08:42:19.467Z,100
2018-09-24T08:43:28.819Z,110
2018-09-24T08:44:38.992Z,110
2018-09-24T08:45:48.873Z,85
2018-09-24T08:46:58.764Z,90
2018-09-24T08:48:08.107Z,115
2018-09-24T08:49:17.188Z,170
2018-09-24T08:50:26.529Z,240
2018-09-24T08:51:36.421Z,260
2018-09-24T08:52:46.588Z,255
2018-09-24T08:53:56.478Z,285
2018-09-24T08:55:06.137Z,380
2018-09-24T08:56:15.744Z,450
2018-09-24T08:57:25.415Z,285
2018-09-24T08:58:34.755Z,245
2018-09-24T08:59:44.648Z,290
2018-09-24T09:00:53.990Z,345
2018-09-24T09:02:03.879Z,335
2018-09-24T09:03:14.051Z,430
2018-09-24T09:04:23.117Z,480
2018-09-24T09:05:33.281Z,495
2018-09-24T09:06:43.241Z,555
2018-09-24T09:07:52.581Z,510
2018-09-24T09:09:01.939Z,385
2018-09-24T09:10:11.844Z,280
2018-09-24T09:11:22.006Z,190
2018-09-24T09:12:31.940Z,175
2018-09-24T09:13:41.564Z,195
2018-09-24T09:14:51.955Z,165
2018-09-24T09:16:01.855Z,155
2018-09-24T09:17:11.475Z,150
2018-09-24T09:18:21.679Z,180
2018-09-24T09:19:31.570Z,150
2018-09-24T09:20:41.452Z,140
2018-09-24T09:21:51.347Z,150
2018-09-24T09:23:01.164Z,165
2018-09-24T09:24:11.861Z,135
2018-09-24T09:25:22.039Z,155
2018-09-24T09:26:32.209Z,220
2018-09-24T09:27:42.095Z,300
2018-09-24T09:28:51.712Z,315
2018-09-24T09:30:01.887Z,330
2018-09-24T09:31:11.771Z,370
2018-09-24T09:32:21.651Z,400
2018-09-24T09:33:31.536Z,390
2018-09-24T09:34:41.156Z,340
2018-09-24T09:35:50.784Z,265
2018-09-24T09:37:00.682Z,230
2018-09-24T09:38:10.300Z,175
2018-09-24T09:39:19.907Z,170
2018-09-24T09:40:29.756Z,175
2018-09-24T09:41:39.963Z,200
2018-09-24T09:42:49.574Z,200
2018-09-24T09:43:59.254Z,200
2018-09-24T09:45:09.187Z,205
2018-09-24T09:46:19.087Z,200
2018-09-24T09:47:28.700Z,200
2018-09-24T09:48:38.330Z,205
2018-09-24T09:49:47.941Z,205
2018-09-24T09:50:58.103Z,205
2018-09-24T09:52:07.993Z,200
2018-09-24T09:53:18.156Z,200
2018-09-24T09:54:28.085Z,195
2018-09-24T09:55:38.249Z,190
2018-09-24T09:56:48.406Z,195
2018-09-24T09:57:58.311Z,200
2018-09-24T09:59:08.650Z,210
2018-09-24T10:00:17.928Z,230
2018-09-24T10:01:27.511Z,240
2018-09-24T10:02:36.857Z,255
2018-09-24T10:03:46.788Z,265
2018-09-24T10:04:57.290Z,280
2018-09-24T10:06:07.190Z,295
2018-09-24T10:07:17.076Z,310
2018-09-24T10:08:26.995Z,330
2018-09-24T10:09:37.207Z,380
2018-09-24T10:10:47.123Z,445
2018-09-24T10:11:56.777Z,465
2018-09-24T10:13:06.657Z,415
2018-09-24T10:14:16.278Z,320
2018-09-24T10:15:26.198Z,250
2018-09-24T10:16:36.119Z,235
2018-09-24T10:17:46.012Z,245
2018-09-24T10:18:56.217Z,295
2018-09-24T10:20:06.112Z,415
2018-09-24T10:21:16.036Z,405
2018-09-24T10:22:26.262Z,405
2018-09-24T10:23:36.201Z,500
2018-09-24T10:24:46.409Z,510
2018-09-24T10:25:55.755Z,570
2018-09-24T10:27:05.909Z,595
2018-09-24T10:28:15.526Z,600
2018-09-24T10:29:24.863Z,500
2018-09-24T10:30:34.509Z,315
2018-09-24T10:31:44.675Z,245
2018-09-24T10:32:54.952Z,250
2018-09-24T10:34:04.583Z,290
2018-09-24T10:35:14.761Z,275
2018-09-24T10:36:24.961Z,360
2018-09-24T10:37:34.893Z,420
2018-09-24T10:38:45.094Z,500
2018-09-24T10:39:55.603Z,580
2018-09-24T10:41:05.529Z,565
2018-09-24T10:42:15.422Z,490
2018-09-24T10:43:25.319Z,345
2018-09-24T10:44:34.969Z,195
2018-09-24T10:45:45.150Z,120
2018-09-24T10:46:55.041Z,100
2018-09-24T10:48:04.657Z,110
2018-09-24T10:49:14.556Z,150
2018-09-24T10:50:24.482Z,180
2018-09-24T10:51:33.552Z,175
2018-09-24T10:52:43.726Z,190
2018-09-24T10:53:53.389Z,250
2018-09-24T10:55:03.347Z,280
2018-09-24T10:56:13.533Z,300
2018-09-24T10:57:23.416Z,305
2018-09-24T10:58:33.088Z,355
2018-09-24T10:59:43.531Z,415
2018-09-24T11:00:53.888Z,455
2018-09-24T11:02:04.108Z,505
2018-09-24T11:03:14.310Z,550
2018-09-24T11:04:23.945Z,585
2018-09-24T11:05:34.106Z,530
2018-09-24T11:06:43.998Z,545
2018-09-24T11:07:54.009Z,600
2018-09-24T11:09:03.351Z,545
2018-09-24T11:10:13.148Z,450
2018-09-24T11:11:23.377Z,395
2018-09-24T11:12:33.265Z,310
2018-09-24T11:13:43.429Z,240
2018-09-24T11:14:53.662Z,240
2018-09-24T11:16:03.956Z,260
2018-09-24T11:17:16.235Z,280
2018-09-24T11:18:25.838Z,300
2018-09-24T11:19:35.777Z,320
2018-09-24T11:20:45.439Z,350
2018-09-24T11:21:55.367Z,375
2018-09-24T11:23:05.253Z,385
2018-09-24T11:24:14.597Z,385
2018-09-24T11:25:24.496Z,410
2018-09-24T11:26:37.147Z,420
2018-09-24T11:27:47.063Z,405
2018-09-24T11:28:57.227Z,375
2018-09-24T11:30:07.118Z,365
2018-09-24T11:31:17.277Z,350
2018-09-24T11:32:27.101Z,325
2018-09-24T11:33:37.000Z,305
2018-09-24T11:34:46.625Z,275
2018-09-24T11:35:56.522Z,250
2018-09-24T11:37:06.145Z,260
2018-09-24T11:38:16.319Z,285
2018-09-24T11:39:26.486Z,340
2018-09-24T11:40:36.101Z,400
2018-09-24T11:41:46.500Z,480
2018-09-24T11:42:55.843Z,480
2018-09-24T11:44:06.308Z,355
2018-09-24T11:45:16.503Z,260
2018-09-24T11:46:26.282Z,265
2018-09-24T11:47:36.466Z,265
2018-09-24T11:48:46.397Z,300
2018-09-24T11:49:56.012Z,355
2018-09-24T11:51:05.090Z,370
2018-09-24T11:52:15.693Z,375
2018-09-24T11:53:25.036Z,540
2018-09-24T11:54:35.210Z,560
2018-09-24T11:55:45.125Z,705
2018-09-24T11:56:54.751Z,590
2018-09-24T11:58:04.915Z,535
2018-09-24T11:59:15.074Z,535
2018-09-24T12:00:24.970Z,530
2018-09-24T12:01:34.910Z,370
2018-09-24T12:02:44.799Z,300
2018-09-24T12:03:54.691Z,300
2018-09-24T12:05:04.587Z,310
2018-09-24T12:06:14.754Z,390
2018-09-24T12:07:24.097Z,390
2018-09-24T12:08:33.639Z,455
2018-09-24T12:09:43.548Z,425
2018-09-24T12:10:52.909Z,405
2018-09-24T12:12:02.525Z,400
2018-09-24T12:13:12.145Z,415
2018-09-24T12:14:22.320Z,510
2018-09-24T12:15:31.928Z,580
2018-09-24T12:16:41.856Z,635
2018-09-24T12:17:52.022Z,750
2018-09-24T12:19:01.967Z,970
2018-09-24T12:20:11.894Z,930
2018-09-24T12:21:20.965Z,520
2018-09-24T12:22:30.856Z,340
2018-09-24T12:23:40.714Z,255
2018-09-24T12:24:50.658Z,155
2018-09-24T12:26:00.577Z,145
2018-09-24T12:27:09.655Z,125
2018-09-24T12:28:19.000Z,120
2018-09-24T12:29:28.352Z,120
2018-09-24T12:30:38.564Z,60
2018-09-24T12:31:48.736Z,40
2018-09-24T12:32:58.625Z,40
2018-09-24T12:34:08.792Z,40
2018-09-24T12:35:18.684Z,45
2018-09-24T12:36:28.022Z,55
2018-09-24T12:37:37.642Z,85
2018-09-24T12:38:47.258Z,140
2018-09-24T12:39:57.155Z,195
2018-09-24T12:41:06.785Z,245
2018-09-24T12:42:17.042Z,200
2018-09-24T12:43:26.656Z,165
2018-09-24T12:44:35.997Z,175
2018-09-24T12:45:45.890Z,190
2018-09-24T12:46:55.513Z,225
2018-09-24T12:48:05.867Z,575
2018-09-24T12:49:16.038Z,565
2018-09-24T12:50:26.223Z,650
2018-09-24T12:51:36.388Z,565
2018-09-24T12:52:46.004Z,555
2018-09-24T12:53:55.908Z,585
2018-09-24T12:55:06.312Z,605
2018-09-24T12:56:16.686Z,555
2018-09-24T12:57:26.336Z,400
2018-09-24T12:58:36.227Z,355
2018-09-24T12:59:45.568Z,350
2018-09-24T13:00:55.464Z,415
2018-09-24T13:02:05.631Z,540
2018-09-24T13:03:15.519Z,625
2018-09-24T13:04:25.441Z,515
2018-09-24T13:05:35.062Z,370
2018-09-24T13:06:45.235Z,255
2018-09-24T13:07:55.409Z,225
2018-09-24T13:09:05.299Z,185
2018-09-24T13:10:15.199Z,180
2018-09-24T13:11:24.863Z,255
2018-09-24T13:12:35.036Z,365
2018-09-24T13:13:44.966Z,490
2018-09-24T13:14:54.584Z,355
2018-09-24T13:16:04.487Z,395
2018-09-24T13:17:14.431Z,440
2018-09-24T13:18:24.043Z,455
2018-09-24T13:19:33.941Z,550
2018-09-24T13:20:43.831Z,540
2018-09-24T13:21:53.725Z,550
2018-09-24T13:23:03.908Z,545
2018-09-24T13:24:13.838Z,600
2018-09-24T13:25:23.478Z,585
2018-09-24T13:26:33.102Z,620
2018-09-24T13:27:43.025Z,535
2018-09-24T13:28:52.717Z,540
2018-09-24T13:30:02.347Z,575
2018-09-24T13:31:12.246Z,540
2018-09-24T13:32:21.862Z,500
2018-09-24T13:33:31.217Z,465
2018-09-24T13:34:41.398Z,435
2018-09-24T13:35:51.324Z,450
2018-09-24T13:37:00.951Z,470
2018-09-24T13:38:10.844Z,550
2018-09-24T13:39:20.748Z,875
2018-09-24T13:40:30.919Z,770
2018-09-24T13:41:40.259Z,560
2018-09-24T13:42:50.217Z,670
2018-09-24T13:44:00.387Z,600
2018-09-24T13:45:10.014Z,665
2018-09-24T13:46:19.916Z,590
2018-09-24T13:47:29.812Z,620
2018-09-24T13:48:39.693Z,750
2018-09-24T13:49:49.347Z,420
2018-09-24T13:50:59.238Z,345
2018-09-24T13:52:09.447Z,235
2018-09-24T13:53:18.796Z,145
2018-09-24T13:54:28.420Z,110
2018-09-24T13:55:38.344Z,90
2018-09-24T13:56:48.237Z,110
2018-09-24T13:57:58.398Z,135
2018-09-24T13:59:08.041Z,160
2018-09-24T14:00:17.934Z,205
2018-09-24T14:01:27.280Z,255
2018-09-24T14:02:37.210Z,320
2018-09-24T14:03:47.108Z,645
2018-09-24T14:04:56.992Z,2360
2018-09-24T14:06:06.846Z,1970
2018-09-24T14:07:17.012Z,2425
2018-09-24T14:08:27.193Z,1305
2018-09-24T14:09:37.088Z,1180
2018-09-24T14:10:46.708Z,1305
2018-09-24T14:11:56.337Z,1830
2018-09-24T14:13:06.266Z,1380
2018-09-24T14:14:16.171Z,1405
2018-09-24T14:15:26.332Z,975
2018-09-24T14:16:36.238Z,1660
2018-09-24T14:17:45.855Z,1185
2018-09-24T14:18:55.753Z,705
2018-09-24T14:20:05.950Z,585
2018-09-24T14:21:15.658Z,265
2018-09-24T14:22:25.287Z,205
2018-09-24T14:23:34.944Z,235
2018-09-24T14:24:44.852Z,275
2018-09-24T14:25:54.755Z,350
2018-09-24T14:27:04.916Z,355
2018-09-24T14:28:14.806Z,235
2018-09-24T14:29:24.977Z,175
2018-09-24T14:30:34.592Z,155
2018-09-24T14:31:44.528Z,160
2018-09-24T14:32:54.701Z,165
2018-09-24T14:34:04.773Z,150
2018-09-24T14:35:14.664Z,130
2018-09-24T14:36:24.845Z,125
2018-09-24T14:37:34.468Z,140
2018-09-24T14:38:44.081Z,150
2018-09-24T14:39:53.962Z,205
2018-09-24T14:41:03.577Z,300
2018-09-24T14:42:13.521Z,380
2018-09-24T14:43:23.689Z,505
2018-09-24T14:44:33.923Z,565
2018-09-24T14:45:43.825Z,655
2018-09-24T14:46:53.726Z,930
2018-09-24T14:48:03.621Z,940
2018-09-24T14:49:13.824Z,520
2018-09-24T14:50:23.723Z,485
2018-09-24T14:51:33.658Z,680
2018-09-24T14:52:43.553Z,670
2018-09-24T14:53:53.181Z,605
2018-09-24T14:55:02.803Z,570
2018-09-24T14:56:12.710Z,555
2018-09-24T14:57:22.671Z,635
2018-09-24T14:58:32.569Z,665
2018-09-24T14:59:42.496Z,575
2018-09-24T15:00:52.135Z,475
2018-09-24T15:02:01.757Z,385
2018-09-24T15:03:12.098Z,230
2018-09-24T15:04:22.296Z,175
2018-09-24T15:05:32.206Z,125
2018-09-24T15:06:42.116Z,100
2018-09-24T15:07:51.731Z,140
2018-09-24T15:09:01.344Z,240
2018-09-24T15:10:11.242Z,240
2018-09-24T15:11:21.169Z,320
2018-09-24T15:12:31.035Z,490
2018-09-24T15:13:40.677Z,595
2018-09-24T15:14:50.883Z,500
2018-09-24T15:16:00.499Z,400
2018-09-24T15:17:09.847Z,380
2018-09-24T15:18:19.465Z,330
2018-09-24T15:19:29.112Z,275
2018-09-24T15:20:38.787Z,275
2018-09-24T15:21:48.404Z,290
2018-09-24T15:22:58.027Z,275
2018-09-24T15:24:07.654Z,415
2018-09-24T15:25:17.864Z,415
2018-09-24T15:26:27.481Z,495
2018-09-24T15:27:36.826Z,235
2018-09-24T15:28:46.442Z,190
2018-09-24T15:29:56.104Z,205
2018-09-24T15:31:06.034Z,1020
2018-09-24T15:32:15.933Z,975
2018-09-24T15:33:25.546Z,1220
2018-09-24T15:34:35.717Z,1305
2018-09-24T15:35:45.347Z,905
2018-09-24T15:36:55.240Z,905
2018-09-24T15:38:05.130Z,805
2018-09-24T15:39:14.755Z,510
2018-09-24T15:40:24.930Z,275
2018-09-24T15:41:34.557Z,165
2018-09-24T15:42:44.415Z,175
2018-09-24T15:43:54.615Z,145
2018-09-24T15:45:04.644Z,110
2018-09-24T15:46:14.252Z,115
2018-09-24T15:47:23.627Z,125
2018-09-24T15:48:33.022Z,130
2018-09-24T15:49:43.203Z,190
2018-09-24T15:50:52.820Z,260
2018-09-24T15:52:02.217Z,190
2018-09-24T15:53:11.555Z,145
2018-09-24T15:54:20.896Z,120
2018-09-24T15:55:31.068Z,120
2018-09-24T15:56:40.444Z,120
2018-09-24T15:57:50.299Z,145
2018-09-24T15:59:00.191Z,155
2018-09-24T16:00:10.080Z,155
2018-09-24T16:01:19.417Z,185
2018-09-24T16:02:29.610Z,215
2018-09-24T16:03:39.503Z,220
2018-09-24T16:04:49.125Z,200
2018-09-24T16:05:59.021Z,180
2018-09-24T16:07:08.644Z,170
2018-09-24T16:08:18.822Z,225
2018-09-24T16:09:28.444Z,345
2018-09-24T16:10:38.337Z,165
2018-09-24T16:11:48.505Z,165
2018-09-24T16:12:58.397Z,240
2018-09-24T16:14:08.360Z,225
2018-09-24T16:15:17.705Z,230
2018-09-24T16:16:27.321Z,370
2018-09-24T16:17:36.936Z,640
2018-09-24T16:18:47.096Z,1035
2018-09-24T16:19:56.992Z,1080
2018-09-24T16:21:06.605Z,1090
2018-09-24T16:22:16.286Z,1075
2018-09-24T16:23:26.183Z,930
2018-09-24T16:24:36.356Z,750
2018-09-24T16:25:46.252Z,410